Terminal Aerodrome Forecast
Issued by NWS

Home | Current Version | Previous Version | Text Only | Print | Product List | Glossary On
Versions: 1 2 3 4 5 6 7 8 9 10 11 12 13 14 15 16 17 18 19 20
000
FTUS43 KGRB 301700
TAFAUW
TAF
KAUW 301735Z 3018/3118 29005KT P6SM OVC060
     FM301900 29008KT P6SM SCT025 BKN045
      TEMPO 3019/3023 -SHRA BKN025
     FM310200 31013G21KT P6SM BKN025 OVC050 PROB30 3103/3109 6SM
      -SHSN
     FM310900 33015G27KT P6SM BKN025 OVC050
     FM311400 35018G28KT P6SM BKN040=

USA.gov is the U.S. government's official web portal to all federal, state and local government web resources and services.